sensor_id;sensor_type;location;lat;lon;timestamp;pressure;altitude;pressure_sealevel;temperature;humidity
48774;BME280;34576;0.000;0.000;2024-01-15T00:00:48;95788.19;;;15.52;59.52
48774;BME280;34576;0.000;0.000;2024-01-15T00:07:48;95787.06;;;15.59;59.85
48774;BME280;34576;0.000;0.000;2024-01-15T00:14:48;95764.47;;;15.66;59.13
48774;BME280;34576;0.000;0.000;2024-01-15T00:21:49;95754.06;;;15.70;60.40
48774;BME280;34576;0.000;0.000;2024-01-15T00:28:49;95743.69;;;15.74;60.26
48774;BME280;34576;0.000;0.000;2024-01-15T00:35:49;95731.19;;;15.79;60.04
48774;BME280;34576;0.000;0.000;2024-01-15T00:42:50;95737.00;;;15.81;60.51
48774;BME280;34576;0.000;0.000;2024-01-15T00:49:50;95730.84;;;15.86;59.73
48774;BME280;34576;0.000;0.000;2024-01-15T00:56:50;95725.25;;;15.87;59.88
48774;BME280;34576;0.000;0.000;2024-01-15T01:03:51;95725.75;;;15.90;60.45
48774;BME280;34576;0.000;0.000;2024-01-15T01:10:51;95708.25;;;15.88;60.34
48774;BME280;34576;0.000;0.000;2024-01-15T01:17:51;95706.69;;;15.87;59.84
48774;BME280;34576;0.000;0.000;2024-01-15T01:24:51;95705.63;;;15.88;59.25
48774;BME280;34576;0.000;0.000;2024-01-15T01:31:52;95706.69;;;15.87;59.29
48774;BME280;34576;0.000;0.000;2024-01-15T01:38:52;95706.69;;;15.87;59.57
48774;BME280;34576;0.000;0.000;2024-01-15T01:45:52;95696.06;;;15.87;59.11
48774;BME280;34576;0.000;0.000;2024-01-15T01:52:55;95689.41;;;15.90;59.41
48774;BME280;34576;0.000;0.000;2024-01-15T01:59:56;95685.69;;;15.91;58.92
48774;BME280;34576;0.000;0.000;2024-01-15T02:06:56;95684.09;;;15.90;58.64
48774;BME280;34576;0.000;0.000;2024-01-15T02:13:57;95689.69;;;15.88;58.75
48774;BME280;34576;0.000;0.000;2024-01-15T02:20:57;95679.09;;;15.88;58.70
48774;BME280;34576;0.000;0.000;2024-01-15T02:27:57;95674.38;;;15.85;59.09
48774;BME280;34576;0.000;0.000;2024-01-15T02:34:58;95674.38;;;15.85;58.34
48774;BME280;34576;0.000;0.000;2024-01-15T02:41:58;95681.81;;;15.83;59.15
48774;BME280;34576;0.000;0.000;2024-01-15T02:48:58;95664.03;;;15.84;58.50
48774;BME280;34576;0.000;0.000;2024-01-15T02:55:59;95676.00;;;15.81;58.77
48774;BME280;34576;0.000;0.000;2024-01-15T03:02:59;95665.94;;;15.78;58.92
48774;BME280;34576;0.000;0.000;2024-01-15T03:09:59;95664.16;;;15.74;59.48
48774;BME280;34576;0.000;0.000;2024-01-15T03:17:00;95660.91;;;15.82;58.98
48774;BME280;34576;0.000;0.000;2024-01-15T03:24:00;95665.84;;;15.88;59.38
48774;BME280;34576;0.000;0.000;2024-01-15T03:31:01;95661.19;;;15.99;59.17
48774;BME280;34576;0.000;0.000;2024-01-15T03:38:01;95654.53;;;16.02;59.19
48774;BME280;34576;0.000;0.000;2024-01-15T03:45:02;95656.09;;;16.03;59.61
48774;BME280;34576;0.000;0.000;2024-01-15T03:52:03;95653.94;;;16.05;59.59
48774;BME280;34576;0.000;0.000;2024-01-15T03:59:03;95646.00;;;16.05;59.29
48774;BME280;34576;0.000;0.000;2024-01-15T04:06:04;95640.41;;;16.07;59.87
48774;BME280;34576;0.000;0.000;2024-01-15T04:13:04;95629.78;;;16.07;58.98
48774;BME280;34576;0.000;0.000;2024-01-15T04:20:05;95644.84;;;16.11;58.58
48774;BME280;34576;0.000;0.000;2024-01-15T04:27:05;95643.75;;;16.12;58.75
48774;BME280;34576;0.000;0.000;2024-01-15T04:34:06;95645.91;;;16.10;58.04
48774;BME280;34576;0.000;0.000;2024-01-15T04:41:09;95643.97;;;16.16;57.78
48774;BME280;34576;0.000;0.000;2024-01-15T04:48:09;95657.16;;;16.21;58.31
48774;BME280;34576;0.000;0.000;2024-01-15T04:55:10;95663.97;;;16.27;58.46
48774;BME280;34576;0.000;0.000;2024-01-15T05:02:10;95662.59;;;16.30;58.17
48774;BME280;34576;0.000;0.000;2024-01-15T05:09:10;95659.94;;;16.30;59.36
48774;BME280;34576;0.000;0.000;2024-01-15T05:16:10;95667.19;;;16.24;60.05
48774;BME280;34576;0.000;0.000;2024-01-15T05:23:11;95663.06;;;16.18;58.99
48774;BME280;34576;0.000;0.000;2024-01-15T05:30:11;95657.22;;;16.16;58.41
48774;BME280;34576;0.000;0.000;2024-01-15T05:37:12;95662.81;;;16.14;58.35
48774;BME280;34576;0.000;0.000;2024-01-15T05:44:12;95676.44;;;11.41;45.92
48774;BME280;34576;0.000;0.000;2024-01-15T05:51:12;95654.16;;;14.98;47.51
48774;BME280;34576;0.000;0.000;2024-01-15T05:58:13;95652.56;;;15.45;49.11
48774;BME280;34576;0.000;0.000;2024-01-15T06:05:13;95654.59;;;15.53;50.19
48774;BME280;34576;0.000;0.000;2024-01-15T06:12:14;95649.28;;;15.53;51.53
48774;BME280;34576;0.000;0.000;2024-01-15T06:19:14;95645.22;;;15.61;52.27
48774;BME280;34576;0.000;0.000;2024-01-15T06:26:14;95638.56;;;15.64;52.74
48774;BME280;34576;0.000;0.000;2024-01-15T06:33:15;95642.44;;;15.71;53.08
48774;BME280;34576;0.000;0.000;2024-01-15T06:40:15;95640.00;;;15.75;53.45
48774;BME280;34576;0.000;0.000;2024-01-15T06:47:15;95632.53;;;15.77;53.70
48774;BME280;34576;0.000;0.000;2024-01-15T06:54:17;95616.13;;;15.75;53.99
48774;BME280;34576;0.000;0.000;2024-01-15T07:01:17;95615.06;;;15.76;54.01
48774;BME280;34576;0.000;0.000;2024-01-15T07:08:18;95605.03;;;15.73;54.31
48774;BME280;34576;0.000;0.000;2024-01-15T07:15:18;95607.97;;;15.71;54.53
48774;BME280;34576;0.000;0.000;2024-01-15T07:22:18;95601.34;;;15.69;54.67
48774;BME280;34576;0.000;0.000;2024-01-15T07:29:19;95586.25;;;15.69;54.43
48774;BME280;34576;0.000;0.000;2024-01-15T07:36:20;95589.19;;;15.68;54.61
48774;BME280;34576;0.000;0.000;2024-01-15T07:43:20;95586.03;;;15.66;54.79
48774;BME280;34576;0.000;0.000;2024-01-15T07:50:21;95575.44;;;15.66;54.50
48774;BME280;34576;0.000;0.000;2024-01-15T07:57:21;95580.25;;;15.64;54.63
48774;BME280;34576;0.000;0.000;2024-01-15T08:04:22;95599.88;;;15.63;54.63
48774;BME280;34576;0.000;0.000;2024-01-15T08:11:23;95606.22;;;15.62;54.47
48774;BME280;34576;0.000;0.000;2024-01-15T08:18:23;95585.31;;;15.60;54.53
48774;BME280;34576;0.000;0.000;2024-01-15T08:25:23;95573.94;;;15.60;54.37
48774;BME280;34576;0.000;0.000;2024-01-15T08:32:24;95575.56;;;15.56;54.42
48774;BME280;34576;0.000;0.000;2024-01-15T08:39:24;95583.81;;;15.54;54.41
48774;BME280;34576;0.000;0.000;2024-01-15T08:46:24;95571.91;;;15.51;54.53
48774;BME280;34576;0.000;0.000;2024-01-15T08:53:24;95567.69;;;15.50;54.32
48774;BME280;34576;0.000;0.000;2024-01-15T09:00:25;95565.88;;;15.46;54.48
48774;BME280;34576;0.000;0.000;2024-01-15T09:07:25;95567.31;;;15.38;54.47
48774;BME280;34576;0.000;0.000;2024-01-15T09:14:26;95555.44;;;15.35;54.59
48774;BME280;34576;0.000;0.000;2024-01-15T09:21:29;95552.00;;;15.35;54.57
48774;BME280;34576;0.000;0.000;2024-01-15T09:28:29;95544.13;;;15.30;54.63
48774;BME280;34576;0.000;0.000;2024-01-15T09:35:30;95519.78;;;15.28;54.64
48774;BME280;34576;0.000;0.000;2024-01-15T09:42:30;95500.72;;;15.26;54.73
48774;BME280;34576;0.000;0.000;2024-01-15T09:49:31;95509.44;;;15.26;54.85
48774;BME280;34576;0.000;0.000;2024-01-15T09:56:31;95515.25;;;15.28;54.48
48774;BME280;34576;0.000;0.000;2024-01-15T10:03:32;95514.25;;;15.24;54.38
48774;BME280;34576;0.000;0.000;2024-01-15T10:10:33;95521.91;;;15.26;54.59
48774;BME280;34576;0.000;0.000;2024-01-15T10:17:36;95520.31;;;15.25;54.44
48774;BME280;34576;0.000;0.000;2024-01-15T10:24:37;95522.00;;;15.21;54.33
48774;BME280;34576;0.000;0.000;2024-01-15T10:31:38;95517.75;;;15.19;54.49
48774;BME280;34576;0.000;0.000;2024-01-15T10:38:39;95517.53;;;15.16;54.37
48774;BME280;34576;0.000;0.000;2024-01-15T10:45:39;95516.75;;;15.15;54.29
48774;BME280;34576;0.000;0.000;2024-01-15T10:52:40;95534.78;;;15.13;54.47
48774;BME280;34576;0.000;0.000;2024-01-15T10:59:40;95531.06;;;15.14;54.27
48774;BME280;34576;0.000;0.000;2024-01-15T11:06:52;95528.50;;;15.09;54.63
48774;BME280;34576;0.000;0.000;2024-01-15T11:13:56;95535.13;;;15.07;54.59
48774;BME280;34576;0.000;0.000;2024-01-15T11:28:37;95557.16;;;15.02;54.56
48774;BME280;34576;0.000;0.000;2024-01-15T11:35:48;95538.63;;;15.02;54.61
48774;BME280;34576;0.000;0.000;2024-01-15T11:42:49;95529.13;;;15.01;54.63
48774;BME280;34576;0.000;0.000;2024-01-15T11:56:51;95549.00;;;14.98;54.38
48774;BME280;34576;0.000;0.000;2024-01-15T12:03:52;95547.97;;;14.94;54.53
48774;BME280;34576;0.000;0.000;2024-01-15T12:10:52;95545.63;;;14.93;54.47
48774;BME280;34576;0.000;0.000;2024-01-15T12:17:54;95521.00;;;14.92;54.79
48774;BME280;34576;0.000;0.000;2024-01-15T12:24:55;95506.75;;;14.88;54.68
48774;BME280;34576;0.000;0.000;2024-01-15T12:31:55;95472.53;;;14.92;54.57
48774;BME280;34576;0.000;0.000;2024-01-15T12:38:58;95486.06;;;14.90;54.39
48774;BME280;34576;0.000;0.000;2024-01-15T12:45:59;95499.59;;;14.89;54.66
48774;BME280;34576;0.000;0.000;2024-01-15T12:52:59;95507.03;;;14.87;54.67
48774;BME280;34576;0.000;0.000;2024-01-15T12:59:59;95502.03;;;14.85;54.54
48774;BME280;34576;0.000;0.000;2024-01-15T13:07:00;95507.09;;;14.81;54.71
48774;BME280;34576;0.000;0.000;2024-01-15T13:14:00;95493.91;;;14.76;54.79
48774;BME280;34576;0.000;0.000;2024-01-15T13:21:00;95519.59;;;14.76;54.69
48774;BME280;34576;0.000;0.000;2024-01-15T13:28:02;95510.34;;;14.73;55.06
48774;BME280;34576;0.000;0.000;2024-01-15T13:35:05;95515.66;;;14.73;54.91
48774;BME280;34576;0.000;0.000;2024-01-15T13:42:05;95531.81;;;14.72;54.84
48774;BME280;34576;0.000;0.000;2024-01-15T13:49:06;95544.28;;;14.71;54.62
48774;BME280;34576;0.000;0.000;2024-01-15T13:56:06;95550.63;;;14.70;54.80
48774;BME280;34576;0.000;0.000;2024-01-15T14:03:07;95569.19;;;14.65;54.99
48774;BME280;34576;0.000;0.000;2024-01-15T14:10:08;95558.91;;;14.63;54.65
48774;BME280;34576;0.000;0.000;2024-01-15T14:17:09;95571.59;;;14.61;55.10
48774;BME280;34576;0.000;0.000;2024-01-15T14:24:09;95583.81;;;14.62;54.97
48774;BME280;34576;0.000;0.000;2024-01-15T14:31:10;95598.63;;;14.58;55.17
48774;BME280;34576;0.000;0.000;2024-01-15T14:38:10;95606.84;;;14.57;55.10
48774;BME280;34576;0.000;0.000;2024-01-15T14:45:10;95621.66;;;14.58;54.88
48774;BME280;34576;0.000;0.000;2024-01-15T14:52:13;95625.94;;;14.54;54.84
48774;BME280;34576;0.000;0.000;2024-01-15T14:59:14;95627.00;;;14.53;55.02
48774;BME280;34576;0.000;0.000;2024-01-15T15:06:14;95618.53;;;14.50;55.00
48774;BME280;34576;0.000;0.000;2024-01-15T15:13:14;95639.97;;;14.49;55.16
48774;BME280;34576;0.000;0.000;2024-01-15T15:20:15;95636.56;;;14.48;55.01
48774;BME280;34576;0.000;0.000;2024-01-15T15:27:15;95652.44;;;14.48;55.04
48774;BME280;34576;0.000;0.000;2024-01-15T15:34:16;95673.06;;;14.46;54.75
48774;BME280;34576;0.000;0.000;2024-01-15T15:41:16;95699.03;;;14.44;54.95
48774;BME280;34576;0.000;0.000;2024-01-15T15:48:16;95694.81;;;14.43;54.70
48774;BME280;34576;0.000;0.000;2024-01-15T15:55:17;95694.28;;;14.41;54.90
48774;BME280;34576;0.000;0.000;2024-01-15T16:02:17;95691.13;;;14.39;54.79
48774;BME280;34576;0.000;0.000;2024-01-15T16:09:18;95694.84;;;14.38;54.93
48774;BME280;34576;0.000;0.000;2024-01-15T16:16:18;95706.50;;;14.37;54.97
48774;BME280;34576;0.000;0.000;2024-01-15T16:23:18;95726.06;;;14.36;54.49
48774;BME280;34576;0.000;0.000;2024-01-15T16:30:19;95717.63;;;14.34;54.89
48774;BME280;34576;0.000;0.000;2024-01-15T16:37:19;95719.47;;;14.33;54.70
48774;BME280;34576;0.000;0.000;2024-01-15T16:44:20;95726.34;;;14.35;54.93
48774;BME280;34576;0.000;0.000;2024-01-15T16:51:20;95749.38;;;14.34;54.93
48774;BME280;34576;0.000;0.000;2024-01-15T16:58:20;95763.16;;;14.31;54.89
48774;BME280;34576;0.000;0.000;2024-01-15T17:05:24;95779.56;;;14.28;54.78
48774;BME280;34576;0.000;0.000;2024-01-15T17:12:24;95797.00;;;14.29;54.50
48774;BME280;34576;0.000;0.000;2024-01-15T17:19:24;95791.72;;;14.29;54.45
48774;BME280;34576;0.000;0.000;2024-01-15T17:26:26;95806.28;;;14.26;54.77
48774;BME280;34576;0.000;0.000;2024-01-15T17:33:26;95832.22;;;14.29;54.48
48774;BME280;34576;0.000;0.000;2024-01-15T17:40:26;95839.88;;;14.26;54.89
48774;BME280;34576;0.000;0.000;2024-01-15T17:47:27;95853.91;;;14.26;55.00
48774;BME280;34576;0.000;0.000;2024-01-15T17:54:27;95864.25;;;14.23;54.85
48774;BME280;34576;0.000;0.000;2024-01-15T18:01:28;95873.50;;;14.25;54.67
48774;BME280;34576;0.000;0.000;2024-01-15T18:08:29;95885.41;;;14.23;54.63
48774;BME280;34576;0.000;0.000;2024-01-15T18:15:29;95896.50;;;14.25;54.61
48774;BME280;34576;0.000;0.000;2024-01-15T18:22:29;95916.09;;;14.24;54.89
48774;BME280;34576;0.000;0.000;2024-01-15T18:29:30;95924.53;;;14.21;54.98
48774;BME280;34576;0.000;0.000;2024-01-15T18:36:30;95937.25;;;14.19;54.89
48774;BME280;34576;0.000;0.000;2024-01-15T18:43:30;95949.91;;;14.32;54.66
48774;BME280;34576;0.000;0.000;2024-01-15T18:50:33;95965.50;;;14.33;54.62
48774;BME280;34576;0.000;0.000;2024-01-15T18:57:34;95973.19;;;14.35;54.43
48774;BME280;34576;0.000;0.000;2024-01-15T19:04:34;95988.28;;;14.35;54.53
48774;BME280;34576;0.000;0.000;2024-01-15T19:11:34;95992.78;;;14.34;55.00
48774;BME280;34576;0.000;0.000;2024-01-15T19:18:35;95996.47;;;14.33;54.92
48774;BME280;34576;0.000;0.000;2024-01-15T19:25:36;95991.72;;;14.35;54.66
48774;BME280;34576;0.000;0.000;2024-01-15T19:32:36;96007.06;;;14.33;54.94
48774;BME280;34576;0.000;0.000;2024-01-15T19:39:36;96008.09;;;14.32;54.85
48774;BME280;34576;0.000;0.000;2024-01-15T19:46:37;96007.28;;;14.57;54.06
48774;BME280;34576;0.000;0.000;2024-01-15T19:53:38;96020.00;;;14.55;54.54
48774;BME280;34576;0.000;0.000;2024-01-15T20:00:38;96020.81;;;14.40;55.14
48774;BME280;34576;0.000;0.000;2024-01-15T20:07:39;96033.53;;;14.38;55.89
48774;BME280;34576;0.000;0.000;2024-01-15T20:14:39;96040.91;;;14.41;56.74
48774;BME280;34576;0.000;0.000;2024-01-15T20:21:39;96055.97;;;14.41;56.82
48774;BME280;34576;0.000;0.000;2024-01-15T20:28:39;96049.88;;;14.56;56.98
48774;BME280;34576;0.000;0.000;2024-01-15T20:35:40;96053.06;;;14.47;56.76
48774;BME280;34576;0.000;0.000;2024-01-15T20:42:40;96050.13;;;14.80;55.82
48774;BME280;34576;0.000;0.000;2024-01-15T20:49:41;96057.75;;;14.92;56.30
48774;BME280;34576;0.000;0.000;2024-01-15T20:56:41;96058.25;;;14.99;56.49
48774;BME280;34576;0.000;0.000;2024-01-15T21:03:41;96066.72;;;15.06;56.77
48774;BME280;34576;0.000;0.000;2024-01-15T21:10:41;96072.53;;;15.08;57.01
48774;BME280;34576;0.000;0.000;2024-01-15T21:17:42;96075.97;;;15.14;57.18
48774;BME280;34576;0.000;0.000;2024-01-15T21:24:42;96080.97;;;15.21;57.00
48774;BME280;34576;0.000;0.000;2024-01-15T21:31:42;96076.69;;;15.25;57.35
48774;BME280;34576;0.000;0.000;2024-01-15T21:38:43;96080.94;;;15.26;57.69
48774;BME280;34576;0.000;0.000;2024-01-15T21:45:43;96079.63;;;15.28;57.60
48774;BME280;34576;0.000;0.000;2024-01-15T21:52:44;96086.22;;;15.31;57.82
48774;BME280;34576;0.000;0.000;2024-01-15T21:59:44;96084.09;;;15.33;58.05
48774;BME280;34576;0.000;0.000;2024-01-15T22:06:45;96097.88;;;15.35;58.37
48774;BME280;34576;0.000;0.000;2024-01-15T22:13:45;96095.44;;;15.44;58.16
48774;BME280;34576;0.000;0.000;2024-01-15T22:20:45;96104.75;;;15.36;58.13
48774;BME280;34576;0.000;0.000;2024-01-15T22:27:46;96106.88;;;15.39;58.23
48774;BME280;34576;0.000;0.000;2024-01-15T22:34:46;96114.81;;;15.39;58.72
48774;BME280;34576;0.000;0.000;2024-01-15T22:41:49;96114.00;;;15.39;58.34
48774;BME280;34576;0.000;0.000;2024-01-15T22:48:49;96117.97;;;15.41;58.81
48774;BME280;34576;0.000;0.000;2024-01-15T22:55:50;96119.56;;;15.42;59.03
48774;BME280;34576;0.000;0.000;2024-01-15T23:02:50;96124.59;;;15.44;58.81
48774;BME280;34576;0.000;0.000;2024-01-15T23:09:53;96128.56;;;15.46;59.15
48774;BME280;34576;0.000;0.000;2024-01-15T23:16:53;96138.63;;;15.49;59.36
48774;BME280;34576;0.000;0.000;2024-01-15T23:23:54;96139.69;;;15.53;59.83
48774;BME280;34576;0.000;0.000;2024-01-15T23:30:54;96146.53;;;15.54;59.57
48774;BME280;34576;0.000;0.000;2024-01-15T23:37:54;96140.97;;;15.56;59.44
48774;BME280;34576;0.000;0.000;2024-01-15T23:44:54;96146.03;;;15.58;59.15
48774;BME280;34576;0.000;0.000;2024-01-15T23:51:56;96152.31;;;15.67;59.15
48774;BME280;34576;0.000;0.000;2024-01-15T23:58:56;96152.88;;;15.64;59.06
